SAWG/RGL METAR and TAF weather

Enter ICAO airport designator
Station Type Date Time Source
SAWG METAR 2022/07/03 14:00 UTC NOAA

SAWG 031400Z 36009KT CAVOK M01/M06 Q0994


Station Type Date Time Source
SAWG Decoded METAR 2022/07/03 14:00 UTC NOAA

Rio Gallegos Aerodrome, Argentina (SAWG) 51-37S 069-17W 19M
Jul 03, 2022 - 10:00 AM EDT / 2022.07.03 1400 UTC
Wind: from the N (360 degrees) at 10 MPH (9 KT):0
Visibility: greater than 7 mile(s):0
Temperature: 30 F (-1 C)
Windchill: 21 F (-6 C):1
Dew Point: 21 F (-6 C)
Relative Humidity: 68%
Pressure (altimeter): 29.35 in. Hg (0994 hPa)
ob: SAWG 031400Z 36009KT CAVOK M01/M06 Q0994
cycle: 14

Station Type Date Time Source
SAWG TAF 2022/07/03 12:12 UTC NOAA

TAF SAWG 031100Z 0312/0412 36012KT 9999 SCT030 SCT040 TX07/0319Z TNM04/0411Z
TEMPO 0314/0321 02023KT
BECMG 0400/0402 VRB05KT
TEMPO 0403/0412 27010KT

Example: see airport list